sensor_id;sensor_type;location;lat;lon;timestamp;P1;durP1;ratioP1;P2;durP2;ratioP2
43552;SDS011;29153;42.696;23.218;2024-01-07T00:00:55;17.20;;;8.38;;
43552;SDS011;29153;42.696;23.218;2024-01-07T00:03:23;15.80;;;8.18;;
43552;SDS011;29153;42.696;23.218;2024-01-07T00:05:51;14.98;;;7.20;;
43552;SDS011;29153;42.696;23.218;2024-01-07T00:08:18;15.78;;;8.38;;
43552;SDS011;29153;42.696;23.218;2024-01-07T00:10:46;15.15;;;8.70;;
43552;SDS011;29153;42.696;23.218;2024-01-07T00:13:14;13.62;;;7.72;;
43552;SDS011;29153;42.696;23.218;2024-01-07T00:15:42;11.30;;;6.22;;
43552;SDS011;29153;42.696;23.218;2024-01-07T00:18:09;12.15;;;5.62;;
43552;SDS011;29153;42.696;23.218;2024-01-07T00:20:37;11.93;;;5.95;;
43552;SDS011;29153;42.696;23.218;2024-01-07T00:23:04;10.58;;;5.78;;
43552;SDS011;29153;42.696;23.218;2024-01-07T00:25:32;10.50;;;5.08;;
43552;SDS011;29153;42.696;23.218;2024-01-07T00:28:00;9.53;;;5.65;;
43552;SDS011;29153;42.696;23.218;2024-01-07T00:30:27;11.18;;;5.80;;
43552;SDS011;29153;42.696;23.218;2024-01-07T00:32:55;11.55;;;5.15;;
43552;SDS011;29153;42.696;23.218;2024-01-07T00:35:22;10.03;;;4.78;;
43552;SDS011;29153;42.696;23.218;2024-01-07T00:37:50;10.43;;;5.30;;
43552;SDS011;29153;42.696;23.218;2024-01-07T00:40:18;12.47;;;5.45;;
43552;SDS011;29153;42.696;23.218;2024-01-07T00:42:45;9.28;;;5.20;;
43552;SDS011;29153;42.696;23.218;2024-01-07T00:45:13;10.28;;;4.72;;
43552;SDS011;29153;42.696;23.218;2024-01-07T00:47:41;9.88;;;5.47;;
43552;SDS011;29153;42.696;23.218;2024-01-07T00:50:08;14.40;;;5.70;;
43552;SDS011;29153;42.696;23.218;2024-01-07T00:52:36;10.72;;;5.97;;
43552;SDS011;29153;42.696;23.218;2024-01-07T00:55:04;10.88;;;5.47;;
43552;SDS011;29153;42.696;23.218;2024-01-07T00:57:32;10.03;;;5.62;;
43552;SDS011;29153;42.696;23.218;2024-01-07T01:00:04;11.12;;;6.12;;
43552;SDS011;29153;42.696;23.218;2024-01-07T01:02:32;13.32;;;5.80;;
43552;SDS011;29153;42.696;23.218;2024-01-07T01:05:01;12.35;;;6.15;;
43552;SDS011;29153;42.696;23.218;2024-01-07T01:07:30;11.20;;;5.10;;
43552;SDS011;29153;42.696;23.218;2024-01-07T01:09:57;11.63;;;6.10;;
43552;SDS011;29153;42.696;23.218;2024-01-07T01:12:25;10.05;;;5.62;;
43552;SDS011;29153;42.696;23.218;2024-01-07T01:14:53;12.43;;;6.33;;
43552;SDS011;29153;42.696;23.218;2024-01-07T01:17:20;11.30;;;6.00;;
43552;SDS011;29153;42.696;23.218;2024-01-07T01:19:48;11.28;;;4.92;;
43552;SDS011;29153;42.696;23.218;2024-01-07T01:22:15;13.35;;;6.65;;
43552;SDS011;29153;42.696;23.218;2024-01-07T01:24:43;16.60;;;6.00;;
43552;SDS011;29153;42.696;23.218;2024-01-07T01:27:11;10.23;;;5.95;;
43552;SDS011;29153;42.696;23.218;2024-01-07T01:29:41;14.07;;;6.37;;
43552;SDS011;29153;42.696;23.218;2024-01-07T01:32:08;16.42;;;5.25;;
43552;SDS011;29153;42.696;23.218;2024-01-07T01:34:36;14.13;;;6.47;;
43552;SDS011;29153;42.696;23.218;2024-01-07T01:37:03;10.55;;;6.25;;
43552;SDS011;29153;42.696;23.218;2024-01-07T01:39:31;10.05;;;4.60;;
43552;SDS011;29153;42.696;23.218;2024-01-07T01:41:59;10.82;;;6.12;;
43552;SDS011;29153;42.696;23.218;2024-01-07T01:44:26;11.63;;;5.45;;
43552;SDS011;29153;42.696;23.218;2024-01-07T01:46:54;9.30;;;5.60;;
43552;SDS011;29153;42.696;23.218;2024-01-07T01:49:22;11.85;;;6.62;;
43552;SDS011;29153;42.696;23.218;2024-01-07T01:51:51;10.85;;;4.78;;
43552;SDS011;29153;42.696;23.218;2024-01-07T01:54:19;13.05;;;7.22;;
43552;SDS011;29153;42.696;23.218;2024-01-07T01:56:47;12.23;;;6.08;;
43552;SDS011;29153;42.696;23.218;2024-01-07T02:01:43;16.75;;;8.70;;
43552;SDS011;29153;42.696;23.218;2024-01-07T02:04:12;17.50;;;9.13;;
43552;SDS011;29153;42.696;23.218;2024-01-07T02:06:41;13.03;;;7.08;;
43552;SDS011;29153;42.696;23.218;2024-01-07T02:09:10;14.75;;;5.40;;
43552;SDS011;29153;42.696;23.218;2024-01-07T02:11:38;13.75;;;6.53;;
43552;SDS011;29153;42.696;23.218;2024-01-07T02:14:06;11.60;;;6.53;;
43552;SDS011;29153;42.696;23.218;2024-01-07T02:16:33;19.73;;;7.80;;
43552;SDS011;29153;42.696;23.218;2024-01-07T02:19:01;15.70;;;8.10;;
43552;SDS011;29153;42.696;23.218;2024-01-07T02:21:28;15.13;;;7.60;;
43552;SDS011;29153;42.696;23.218;2024-01-07T02:23:56;13.75;;;7.80;;
43552;SDS011;29153;42.696;23.218;2024-01-07T02:26:24;33.48;;;16.77;;
43552;SDS011;29153;42.696;23.218;2024-01-07T02:28:51;30.95;;;13.93;;
43552;SDS011;29153;42.696;23.218;2024-01-07T02:31:19;20.80;;;10.98;;
43552;SDS011;29153;42.696;23.218;2024-01-07T02:33:47;16.37;;;9.83;;
43552;SDS011;29153;42.696;23.218;2024-01-07T02:36:15;14.00;;;7.12;;
43552;SDS011;29153;42.696;23.218;2024-01-07T02:38:43;13.38;;;7.33;;
43552;SDS011;29153;42.696;23.218;2024-01-07T02:41:10;19.90;;;10.80;;
43552;SDS011;29153;42.696;23.218;2024-01-07T02:43:38;11.65;;;6.87;;
43552;SDS011;29153;42.696;23.218;2024-01-07T02:46:05;15.75;;;7.47;;
43552;SDS011;29153;42.696;23.218;2024-01-07T02:48:33;16.05;;;8.75;;
43552;SDS011;29153;42.696;23.218;2024-01-07T02:51:01;17.65;;;9.20;;
43552;SDS011;29153;42.696;23.218;2024-01-07T02:53:32;16.37;;;7.75;;
43552;SDS011;29153;42.696;23.218;2024-01-07T02:55:59;14.13;;;7.85;;
43552;SDS011;29153;42.696;23.218;2024-01-07T02:58:27;15.00;;;7.95;;
43552;SDS011;29153;42.696;23.218;2024-01-07T03:00:54;13.25;;;7.62;;
43552;SDS011;29153;42.696;23.218;2024-01-07T03:03:23;14.47;;;8.18;;
43552;SDS011;29153;42.696;23.218;2024-01-07T03:05:50;17.30;;;8.83;;
43552;SDS011;29153;42.696;23.218;2024-01-07T03:08:18;14.20;;;8.28;;
43552;SDS011;29153;42.696;23.218;2024-01-07T03:10:45;14.05;;;8.13;;
43552;SDS011;29153;42.696;23.218;2024-01-07T03:13:13;15.68;;;8.33;;
43552;SDS011;29153;42.696;23.218;2024-01-07T03:15:41;17.92;;;8.80;;
43552;SDS011;29153;42.696;23.218;2024-01-07T03:18:08;18.55;;;10.90;;
43552;SDS011;29153;42.696;23.218;2024-01-07T03:20:36;16.35;;;9.00;;
43552;SDS011;29153;42.696;23.218;2024-01-07T03:23:04;16.95;;;8.95;;
43552;SDS011;29153;42.696;23.218;2024-01-07T03:25:31;16.90;;;8.48;;
43552;SDS011;29153;42.696;23.218;2024-01-07T03:27:59;24.27;;;12.05;;
43552;SDS011;29153;42.696;23.218;2024-01-07T03:30:26;38.58;;;15.95;;
43552;SDS011;29153;42.696;23.218;2024-01-07T03:32:54;61.77;;;23.15;;
43552;SDS011;29153;42.696;23.218;2024-01-07T03:35:22;33.60;;;13.32;;
43552;SDS011;29153;42.696;23.218;2024-01-07T03:37:49;36.15;;;19.40;;
43552;SDS011;29153;42.696;23.218;2024-01-07T03:40:17;25.37;;;11.57;;
43552;SDS011;29153;42.696;23.218;2024-01-07T03:42:45;21.93;;;10.25;;
43552;SDS011;29153;42.696;23.218;2024-01-07T03:45:12;16.73;;;9.55;;
43552;SDS011;29153;42.696;23.218;2024-01-07T03:47:40;12.05;;;5.30;;
43552;SDS011;29153;42.696;23.218;2024-01-07T03:50:08;7.67;;;4.15;;
43552;SDS011;29153;42.696;23.218;2024-01-07T03:52:35;10.18;;;4.42;;
43552;SDS011;29153;42.696;23.218;2024-01-07T03:55:03;6.45;;;3.55;;
43552;SDS011;29153;42.696;23.218;2024-01-07T03:57:31;6.85;;;3.02;;
43552;SDS011;29153;42.696;23.218;2024-01-07T03:59:59;6.90;;;2.58;;
43552;SDS011;29153;42.696;23.218;2024-01-07T04:02:26;9.63;;;5.03;;
43552;SDS011;29153;42.696;23.218;2024-01-07T04:04:54;11.35;;;5.05;;
43552;SDS011;29153;42.696;23.218;2024-01-07T04:07:22;5.65;;;2.40;;
43552;SDS011;29153;42.696;23.218;2024-01-07T04:09:49;4.22;;;2.08;;
43552;SDS011;29153;42.696;23.218;2024-01-07T04:12:17;2.80;;;1.30;;
43552;SDS011;29153;42.696;23.218;2024-01-07T04:14:44;2.25;;;0.98;;
43552;SDS011;29153;42.696;23.218;2024-01-07T04:17:12;1.95;;;1.25;;
43552;SDS011;29153;42.696;23.218;2024-01-07T04:19:40;1.65;;;0.68;;
43552;SDS011;29153;42.696;23.218;2024-01-07T04:22:07;2.42;;;1.00;;
43552;SDS011;29153;42.696;23.218;2024-01-07T04:24:35;1.52;;;0.40;;
43552;SDS011;29153;42.696;23.218;2024-01-07T04:27:03;1.80;;;0.90;;
43552;SDS011;29153;42.696;23.218;2024-01-07T04:29:30;2.02;;;0.88;;
43552;SDS011;29153;42.696;23.218;2024-01-07T04:31:58;2.02;;;0.90;;
43552;SDS011;29153;42.696;23.218;2024-01-07T04:34:25;2.60;;;1.32;;
43552;SDS011;29153;42.696;23.218;2024-01-07T04:36:53;2.72;;;1.50;;
43552;SDS011;29153;42.696;23.218;2024-01-07T04:39:21;2.98;;;1.50;;
43552;SDS011;29153;42.696;23.218;2024-01-07T04:41:48;2.87;;;1.82;;
43552;SDS011;29153;42.696;23.218;2024-01-07T04:44:16;4.05;;;1.37;;
43552;SDS011;29153;42.696;23.218;2024-01-07T04:46:44;3.98;;;1.87;;
43552;SDS011;29153;42.696;23.218;2024-01-07T04:49:12;3.25;;;1.95;;
43552;SDS011;29153;42.696;23.218;2024-01-07T04:51:39;4.37;;;1.77;;
43552;SDS011;29153;42.696;23.218;2024-01-07T04:54:07;6.35;;;3.42;;
43552;SDS011;29153;42.696;23.218;2024-01-07T04:56:34;5.17;;;3.20;;
43552;SDS011;29153;42.696;23.218;2024-01-07T04:59:02;7.33;;;3.50;;
43552;SDS011;29153;42.696;23.218;2024-01-07T05:01:32;5.67;;;3.47;;
43552;SDS011;29153;42.696;23.218;2024-01-07T05:03:59;10.82;;;5.62;;
43552;SDS011;29153;42.696;23.218;2024-01-07T05:06:27;6.90;;;4.10;;
43552;SDS011;29153;42.696;23.218;2024-01-07T05:08:55;10.08;;;4.17;;
43552;SDS011;29153;42.696;23.218;2024-01-07T05:11:22;9.80;;;4.30;;
43552;SDS011;29153;42.696;23.218;2024-01-07T05:13:50;24.40;;;10.78;;
43552;SDS011;29153;42.696;23.218;2024-01-07T05:16:18;14.40;;;6.60;;
43552;SDS011;29153;42.696;23.218;2024-01-07T05:18:46;12.15;;;5.17;;
43552;SDS011;29153;42.696;23.218;2024-01-07T05:21:15;12.20;;;6.25;;
43552;SDS011;29153;42.696;23.218;2024-01-07T05:23:44;7.95;;;4.95;;
43552;SDS011;29153;42.696;23.218;2024-01-07T05:26:11;4.60;;;2.37;;
43552;SDS011;29153;42.696;23.218;2024-01-07T05:28:39;8.88;;;2.98;;
43552;SDS011;29153;42.696;23.218;2024-01-07T05:31:16;13.18;;;5.50;;
43552;SDS011;29153;42.696;23.218;2024-01-07T05:33:43;9.98;;;4.40;;
43552;SDS011;29153;42.696;23.218;2024-01-07T05:38:38;10.65;;;4.95;;
43552;SDS011;29153;42.696;23.218;2024-01-07T05:41:07;14.00;;;5.92;;
43552;SDS011;29153;42.696;23.218;2024-01-07T05:43:35;13.85;;;5.37;;
43552;SDS011;29153;42.696;23.218;2024-01-07T05:46:03;8.88;;;5.17;;
43552;SDS011;29153;42.696;23.218;2024-01-07T05:48:40;9.38;;;5.37;;
43552;SDS011;29153;42.696;23.218;2024-01-07T05:51:09;17.62;;;9.15;;
43552;SDS011;29153;42.696;23.218;2024-01-07T05:53:37;17.70;;;11.33;;
43552;SDS011;29153;42.696;23.218;2024-01-07T05:56:06;21.90;;;11.20;;
43552;SDS011;29153;42.696;23.218;2024-01-07T05:58:34;2.83;;;1.02;;
43552;SDS011;29153;42.696;23.218;2024-01-07T06:01:09;2.15;;;1.00;;
43552;SDS011;29153;42.696;23.218;2024-01-07T06:03:34;1.60;;;0.42;;
43552;SDS011;29153;42.696;23.218;2024-01-07T06:06:02;8.93;;;2.90;;
43552;SDS011;29153;42.696;23.218;2024-01-07T06:08:29;17.10;;;6.83;;
43552;SDS011;29153;42.696;23.218;2024-01-07T06:10:57;11.18;;;6.05;;
43552;SDS011;29153;42.696;23.218;2024-01-07T06:16:09;16.60;;;8.65;;
43552;SDS011;29153;42.696;23.218;2024-01-07T06:18:36;28.12;;;14.70;;
43552;SDS011;29153;42.696;23.218;2024-01-07T06:21:05;14.28;;;8.00;;
43552;SDS011;29153;42.696;23.218;2024-01-07T06:23:32;22.02;;;14.90;;
43552;SDS011;29153;42.696;23.218;2024-01-07T06:26:04;22.73;;;12.00;;
43552;SDS011;29153;42.696;23.218;2024-01-07T06:28:32;19.45;;;11.00;;
43552;SDS011;29153;42.696;23.218;2024-01-07T06:31:02;19.35;;;11.83;;
43552;SDS011;29153;42.696;23.218;2024-01-07T06:33:32;27.20;;;15.60;;
43552;SDS011;29153;42.696;23.218;2024-01-07T06:36:00;26.57;;;15.25;;
43552;SDS011;29153;42.696;23.218;2024-01-07T06:38:28;20.92;;;12.25;;
43552;SDS011;29153;42.696;23.218;2024-01-07T06:40:55;20.27;;;10.32;;
43552;SDS011;29153;42.696;23.218;2024-01-07T06:43:24;20.23;;;10.55;;
43552;SDS011;29153;42.696;23.218;2024-01-07T06:45:52;40.85;;;15.50;;
43552;SDS011;29153;42.696;23.218;2024-01-07T06:48:20;38.08;;;20.20;;
43552;SDS011;29153;42.696;23.218;2024-01-07T06:50:47;33.78;;;20.05;;
43552;SDS011;29153;42.696;23.218;2024-01-07T06:53:15;29.50;;;18.15;;
43552;SDS011;29153;42.696;23.218;2024-01-07T06:55:42;28.12;;;18.65;;
43552;SDS011;29153;42.696;23.218;2024-01-07T06:58:10;26.93;;;16.77;;
43552;SDS011;29153;42.696;23.218;2024-01-07T07:00:38;27.05;;;17.25;;
43552;SDS011;29153;42.696;23.218;2024-01-07T07:03:05;22.00;;;14.70;;
43552;SDS011;29153;42.696;23.218;2024-01-07T07:05:35;23.60;;;13.43;;
43552;SDS011;29153;42.696;23.218;2024-01-07T07:08:02;19.80;;;12.47;;
43552;SDS011;29153;42.696;23.218;2024-01-07T07:10:30;21.73;;;13.30;;
43552;SDS011;29153;42.696;23.218;2024-01-07T07:12:58;19.12;;;11.45;;
43552;SDS011;29153;42.696;23.218;2024-01-07T07:15:25;18.73;;;11.08;;
43552;SDS011;29153;42.696;23.218;2024-01-07T07:17:54;20.10;;;11.12;;
43552;SDS011;29153;42.696;23.218;2024-01-07T07:22:56;22.30;;;12.88;;
43552;SDS011;29153;42.696;23.218;2024-01-07T07:25:24;21.00;;;10.70;;
43552;SDS011;29153;42.696;23.218;2024-01-07T07:27:52;18.67;;;10.58;;
43552;SDS011;29153;42.696;23.218;2024-01-07T07:30:19;19.37;;;11.80;;
43552;SDS011;29153;42.696;23.218;2024-01-07T07:32:47;18.35;;;10.32;;
43552;SDS011;29153;42.696;23.218;2024-01-07T07:35:14;24.98;;;13.18;;
43552;SDS011;29153;42.696;23.218;2024-01-07T07:37:42;18.82;;;11.53;;
43552;SDS011;29153;42.696;23.218;2024-01-07T07:40:10;75.90;;;33.73;;
43552;SDS011;29153;42.696;23.218;2024-01-07T07:42:38;39.73;;;20.92;;
43552;SDS011;29153;42.696;23.218;2024-01-07T07:45:06;44.18;;;21.75;;
43552;SDS011;29153;42.696;23.218;2024-01-07T07:47:34;42.95;;;21.77;;
43552;SDS011;29153;42.696;23.218;2024-01-07T07:50:02;34.43;;;18.20;;
43552;SDS011;29153;42.696;23.218;2024-01-07T07:52:30;35.55;;;18.00;;
43552;SDS011;29153;42.696;23.218;2024-01-07T07:54:57;36.42;;;18.80;;
43552;SDS011;29153;42.696;23.218;2024-01-07T07:57:25;65.78;;;29.80;;
43552;SDS011;29153;42.696;23.218;2024-01-07T07:59:54;57.17;;;28.47;;
43552;SDS011;29153;42.696;23.218;2024-01-07T08:02:22;55.30;;;29.52;;
43552;SDS011;29153;42.696;23.218;2024-01-07T08:04:49;58.75;;;29.60;;
43552;SDS011;29153;42.696;23.218;2024-01-07T08:07:17;34.50;;;18.82;;
43552;SDS011;29153;42.696;23.218;2024-01-07T08:09:45;40.73;;;20.43;;
43552;SDS011;29153;42.696;23.218;2024-01-07T08:12:13;26.52;;;13.93;;
43552;SDS011;29153;42.696;23.218;2024-01-07T08:14:40;24.82;;;12.78;;
43552;SDS011;29153;42.696;23.218;2024-01-07T08:17:08;30.70;;;16.07;;
43552;SDS011;29153;42.696;23.218;2024-01-07T08:19:36;23.07;;;11.18;;
43552;SDS011;29153;42.696;23.218;2024-01-07T08:22:03;26.12;;;11.50;;
43552;SDS011;29153;42.696;23.218;2024-01-07T08:24:31;20.68;;;10.35;;
43552;SDS011;29153;42.696;23.218;2024-01-07T08:26:58;20.92;;;9.68;;
43552;SDS011;29153;42.696;23.218;2024-01-07T08:29:26;18.60;;;9.10;;
43552;SDS011;29153;42.696;23.218;2024-01-07T08:31:54;37.73;;;14.65;;
43552;SDS011;29153;42.696;23.218;2024-01-07T08:34:21;21.17;;;11.25;;
43552;SDS011;29153;42.696;23.218;2024-01-07T08:36:49;36.75;;;15.75;;
43552;SDS011;29153;42.696;23.218;2024-01-07T08:39:17;17.90;;;9.18;;
43552;SDS011;29153;42.696;23.218;2024-01-07T08:41:44;15.70;;;9.38;;
43552;SDS011;29153;42.696;23.218;2024-01-07T08:44:12;15.43;;;8.03;;
43552;SDS011;29153;42.696;23.218;2024-01-07T08:46:40;13.38;;;7.45;;
43552;SDS011;29153;42.696;23.218;2024-01-07T08:49:07;15.28;;;8.53;;
43552;SDS011;29153;42.696;23.218;2024-01-07T08:51:35;9.10;;;5.10;;
43552;SDS011;29153;42.696;23.218;2024-01-07T08:54:03;12.50;;;6.55;;
43552;SDS011;29153;42.696;23.218;2024-01-07T08:56:31;19.82;;;8.35;;
43552;SDS011;29153;42.696;23.218;2024-01-07T08:58:59;16.77;;;9.23;;
43552;SDS011;29153;42.696;23.218;2024-01-07T09:01:26;26.87;;;12.13;;
43552;SDS011;29153;42.696;23.218;2024-01-07T09:03:54;26.85;;;13.32;;
43552;SDS011;29153;42.696;23.218;2024-01-07T09:06:21;94.13;;;36.65;;
43552;SDS011;29153;42.696;23.218;2024-01-07T09:08:50;19.30;;;9.55;;
43552;SDS011;29153;42.696;23.218;2024-01-07T09:11:20;22.98;;;12.73;;
43552;SDS011;29153;42.696;23.218;2024-01-07T09:13:49;9.23;;;5.05;;
43552;SDS011;29153;42.696;23.218;2024-01-07T09:16:17;11.73;;;6.83;;
43552;SDS011;29153;42.696;23.218;2024-01-07T09:18:44;16.15;;;9.85;;
43552;SDS011;29153;42.696;23.218;2024-01-07T09:21:12;22.67;;;11.78;;
43552;SDS011;29153;42.696;23.218;2024-01-07T09:23:41;15.38;;;9.63;;
43552;SDS011;29153;42.696;23.218;2024-01-07T09:26:09;18.75;;;12.33;;
43552;SDS011;29153;42.696;23.218;2024-01-07T09:28:37;36.75;;;18.42;;
43552;SDS011;29153;42.696;23.218;2024-01-07T09:31:05;37.80;;;20.30;;
43552;SDS011;29153;42.696;23.218;2024-01-07T09:33:33;36.20;;;16.65;;
43552;SDS011;29153;42.696;23.218;2024-01-07T09:36:01;19.98;;;12.73;;
43552;SDS011;29153;42.696;23.218;2024-01-07T09:38:28;51.45;;;23.98;;
43552;SDS011;29153;42.696;23.218;2024-01-07T09:40:56;16.87;;;9.78;;
43552;SDS011;29153;42.696;23.218;2024-01-07T09:43:24;13.62;;;8.10;;
43552;SDS011;29153;42.696;23.218;2024-01-07T09:45:52;18.70;;;4.83;;
43552;SDS011;29153;42.696;23.218;2024-01-07T09:48:22;2.45;;;0.50;;
43552;SDS011;29153;42.696;23.218;2024-01-07T09:50:51;3.62;;;0.42;;
43552;SDS011;29153;42.696;23.218;2024-01-07T09:53:19;2.65;;;0.55;;
43552;SDS011;29153;42.696;23.218;2024-01-07T09:58:42;3.58;;;0.75;;
43552;SDS011;29153;42.696;23.218;2024-01-07T10:01:10;4.80;;;0.33;;
43552;SDS011;29153;42.696;23.218;2024-01-07T10:03:38;2.72;;;0.60;;
43552;SDS011;29153;42.696;23.218;2024-01-07T10:06:06;2.47;;;0.45;;
43552;SDS011;29153;42.696;23.218;2024-01-07T10:08:34;3.47;;;0.75;;
43552;SDS011;29153;42.696;23.218;2024-01-07T10:11:01;3.58;;;0.53;;
43552;SDS011;29153;42.696;23.218;2024-01-07T10:13:30;3.75;;;0.55;;
43552;SDS011;29153;42.696;23.218;2024-01-07T10:15:58;1.90;;;0.60;;
43552;SDS011;29153;42.696;23.218;2024-01-07T10:18:26;3.02;;;0.55;;
43552;SDS011;29153;42.696;23.218;2024-01-07T10:20:56;1.82;;;0.30;;
43552;SDS011;29153;42.696;23.218;2024-01-07T10:23:34;3.42;;;0.95;;
43552;SDS011;29153;42.696;23.218;2024-01-07T10:26:02;4.12;;;0.62;;
43552;SDS011;29153;42.696;23.218;2024-01-07T10:28:31;2.33;;;0.50;;
43552;SDS011;29153;42.696;23.218;2024-01-07T10:30:59;5.17;;;0.70;;
43552;SDS011;29153;42.696;23.218;2024-01-07T10:33:30;3.17;;;0.90;;
43552;SDS011;29153;42.696;23.218;2024-01-07T10:36:02;2.02;;;0.60;;
43552;SDS011;29153;42.696;23.218;2024-01-07T10:38:32;1.17;;;0.45;;
43552;SDS011;29153;42.696;23.218;2024-01-07T10:45:59;2.25;;;0.40;;
43552;SDS011;29153;42.696;23.218;2024-01-07T10:48:30;0.82;;;0.23;;
43552;SDS011;29153;42.696;23.218;2024-01-07T10:51:00;1.35;;;0.20;;
43552;SDS011;29153;42.696;23.218;2024-01-07T10:53:30;3.15;;;0.60;;
43552;SDS011;29153;42.696;23.218;2024-01-07T10:56:06;2.87;;;0.25;;
43552;SDS011;29153;42.696;23.218;2024-01-07T10:58:36;1.67;;;0.20;;
43552;SDS011;29153;42.696;23.218;2024-01-07T11:01:04;4.03;;;0.60;;
43552;SDS011;29153;42.696;23.218;2024-01-07T11:03:36;2.35;;;0.25;;
43552;SDS011;29153;42.696;23.218;2024-01-07T11:08:58;2.42;;;0.42;;
43552;SDS011;29153;42.696;23.218;2024-01-07T11:11:47;1.80;;;0.20;;
43552;SDS011;29153;42.696;23.218;2024-01-07T11:14:27;2.98;;;0.30;;
43552;SDS011;29153;42.696;23.218;2024-01-07T11:16:53;2.65;;;0.72;;
43552;SDS011;29153;42.696;23.218;2024-01-07T11:19:21;2.05;;;0.20;;
43552;SDS011;29153;42.696;23.218;2024-01-07T11:21:50;1.85;;;0.30;;
43552;SDS011;29153;42.696;23.218;2024-01-07T11:24:51;2.60;;;0.60;;
43552;SDS011;29153;42.696;23.218;2024-01-07T11:27:11;2.75;;;0.42;;
43552;SDS011;29153;42.696;23.218;2024-01-07T11:29:35;3.65;;;0.60;;
43552;SDS011;29153;42.696;23.218;2024-01-07T11:32:03;2.02;;;0.50;;
43552;SDS011;29153;42.696;23.218;2024-01-07T11:34:41;2.35;;;1.40;;
43552;SDS011;29153;42.696;23.218;2024-01-07T11:37:11;4.08;;;0.35;;
43552;SDS011;29153;42.696;23.218;2024-01-07T11:39:43;2.55;;;0.50;;
43552;SDS011;29153;42.696;23.218;2024-01-07T11:42:12;1.98;;;0.93;;
43552;SDS011;29153;42.696;23.218;2024-01-07T11:47:21;1.52;;;0.47;;
43552;SDS011;29153;42.696;23.218;2024-01-07T11:49:51;2.70;;;0.35;;
43552;SDS011;29153;42.696;23.218;2024-01-07T11:52:19;0.82;;;0.35;;
43552;SDS011;29153;42.696;23.218;2024-01-07T11:54:47;3.15;;;0.47;;
43552;SDS011;29153;42.696;23.218;2024-01-07T11:57:15;3.70;;;0.88;;
43552;SDS011;29153;42.696;23.218;2024-01-07T11:59:43;1.62;;;0.47;;
43552;SDS011;29153;42.696;23.218;2024-01-07T12:02:10;2.30;;;0.50;;
43552;SDS011;29153;42.696;23.218;2024-01-07T12:04:40;21.87;;;9.03;;
43552;SDS011;29153;42.696;23.218;2024-01-07T12:07:08;9.65;;;3.47;;
43552;SDS011;29153;42.696;23.218;2024-01-07T12:09:38;2.62;;;0.70;;
43552;SDS011;29153;42.696;23.218;2024-01-07T12:12:05;3.58;;;0.68;;
43552;SDS011;29153;42.696;23.218;2024-01-07T12:14:33;1.67;;;0.40;;
43552;SDS011;29153;42.696;23.218;2024-01-07T12:17:01;4.25;;;0.82;;
43552;SDS011;29153;42.696;23.218;2024-01-07T12:19:29;3.45;;;0.90;;
43552;SDS011;29153;42.696;23.218;2024-01-07T12:22:03;3.77;;;1.40;;
43552;SDS011;29153;42.696;23.218;2024-01-07T12:24:33;1.52;;;0.82;;
43552;SDS011;29153;42.696;23.218;2024-01-07T12:27:04;2.50;;;0.78;;
43552;SDS011;29153;42.696;23.218;2024-01-07T12:29:32;2.85;;;1.10;;
43552;SDS011;29153;42.696;23.218;2024-01-07T12:32:00;6.85;;;2.58;;
43552;SDS011;29153;42.696;23.218;2024-01-07T12:34:28;4.65;;;2.75;;
43552;SDS011;29153;42.696;23.218;2024-01-07T12:36:57;5.58;;;3.30;;
43552;SDS011;29153;42.696;23.218;2024-01-07T12:39:25;7.37;;;2.77;;
43552;SDS011;29153;42.696;23.218;2024-01-07T12:41:53;8.10;;;3.35;;
43552;SDS011;29153;42.696;23.218;2024-01-07T12:44:20;7.00;;;3.35;;
43552;SDS011;29153;42.696;23.218;2024-01-07T12:46:48;5.53;;;2.98;;
43552;SDS011;29153;42.696;23.218;2024-01-07T12:49:17;7.45;;;1.92;;
43552;SDS011;29153;42.696;23.218;2024-01-07T12:51:45;4.37;;;1.77;;
43552;SDS011;29153;42.696;23.218;2024-01-07T12:54:12;6.37;;;2.20;;
43552;SDS011;29153;42.696;23.218;2024-01-07T12:56:40;5.15;;;3.67;;
43552;SDS011;29153;42.696;23.218;2024-01-07T12:59:08;3.70;;;1.12;;
43552;SDS011;29153;42.696;23.218;2024-01-07T13:01:35;2.20;;;0.80;;
43552;SDS011;29153;42.696;23.218;2024-01-07T13:04:20;3.05;;;0.70;;
43552;SDS011;29153;42.696;23.218;2024-01-07T13:06:40;2.50;;;0.42;;
43552;SDS011;29153;42.696;23.218;2024-01-07T13:09:08;3.12;;;0.78;;
43552;SDS011;29153;42.696;23.218;2024-01-07T13:11:35;2.92;;;1.12;;
43552;SDS011;29153;42.696;23.218;2024-01-07T13:14:03;3.10;;;1.00;;
43552;SDS011;29153;42.696;23.218;2024-01-07T13:16:31;3.72;;;1.77;;
43552;SDS011;29153;42.696;23.218;2024-01-07T13:18:58;6.90;;;3.35;;
43552;SDS011;29153;42.696;23.218;2024-01-07T13:21:26;5.05;;;2.77;;
43552;SDS011;29153;42.696;23.218;2024-01-07T13:23:53;4.67;;;2.50;;
43552;SDS011;29153;42.696;23.218;2024-01-07T13:26:22;6.40;;;2.42;;
43552;SDS011;29153;42.696;23.218;2024-01-07T13:28:50;5.60;;;2.75;;
43552;SDS011;29153;42.696;23.218;2024-01-07T13:31:18;4.28;;;2.10;;
43552;SDS011;29153;42.696;23.218;2024-01-07T13:33:46;5.95;;;1.55;;
43552;SDS011;29153;42.696;23.218;2024-01-07T13:36:14;6.35;;;1.45;;
43552;SDS011;29153;42.696;23.218;2024-01-07T13:38:41;2.55;;;0.65;;
43552;SDS011;29153;42.696;23.218;2024-01-07T13:41:09;2.60;;;0.68;;
43552;SDS011;29153;42.696;23.218;2024-01-07T13:43:37;2.83;;;0.70;;
43552;SDS011;29153;42.696;23.218;2024-01-07T13:46:06;1.65;;;0.50;;
43552;SDS011;29153;42.696;23.218;2024-01-07T13:51:03;2.75;;;0.85;;
43552;SDS011;29153;42.696;23.218;2024-01-07T13:55:58;7.60;;;3.22;;
43552;SDS011;29153;42.696;23.218;2024-01-07T13:58:26;10.23;;;4.22;;
43552;SDS011;29153;42.696;23.218;2024-01-07T14:00:55;8.58;;;2.08;;
43552;SDS011;29153;42.696;23.218;2024-01-07T14:03:23;4.85;;;1.65;;
43552;SDS011;29153;42.696;23.218;2024-01-07T14:05:50;3.72;;;0.82;;
43552;SDS011;29153;42.696;23.218;2024-01-07T14:08:18;2.15;;;0.65;;
43552;SDS011;29153;42.696;23.218;2024-01-07T14:10:46;3.83;;;0.68;;
43552;SDS011;29153;42.696;23.218;2024-01-07T14:13:14;7.78;;;2.87;;
43552;SDS011;29153;42.696;23.218;2024-01-07T14:15:42;11.28;;;3.80;;
43552;SDS011;29153;42.696;23.218;2024-01-07T14:18:09;18.05;;;6.33;;
43552;SDS011;29153;42.696;23.218;2024-01-07T14:20:39;12.85;;;5.97;;
43552;SDS011;29153;42.696;23.218;2024-01-07T14:23:06;9.45;;;4.67;;
43552;SDS011;29153;42.696;23.218;2024-01-07T14:25:35;8.13;;;3.83;;
43552;SDS011;29153;42.696;23.218;2024-01-07T14:28:03;4.67;;;2.83;;
43552;SDS011;29153;42.696;23.218;2024-01-07T14:30:31;7.92;;;3.47;;
43552;SDS011;29153;42.696;23.218;2024-01-07T14:32:59;4.72;;;2.20;;
43552;SDS011;29153;42.696;23.218;2024-01-07T14:35:26;4.30;;;2.52;;
43552;SDS011;29153;42.696;23.218;2024-01-07T14:37:58;4.17;;;1.82;;
43552;SDS011;29153;42.696;23.218;2024-01-07T14:40:26;5.25;;;2.20;;
43552;SDS011;29153;42.696;23.218;2024-01-07T14:42:53;5.40;;;1.32;;
43552;SDS011;29153;42.696;23.218;2024-01-07T14:45:23;3.25;;;1.20;;
43552;SDS011;29153;42.696;23.218;2024-01-07T14:50:18;7.10;;;1.47;;
43552;SDS011;29153;42.696;23.218;2024-01-07T14:52:46;3.58;;;1.57;;
43552;SDS011;29153;42.696;23.218;2024-01-07T14:55:14;4.22;;;1.00;;
43552;SDS011;29153;42.696;23.218;2024-01-07T14:57:42;3.77;;;1.10;;
43552;SDS011;29153;42.696;23.218;2024-01-07T15:00:10;9.58;;;4.78;;